createdAt,value
2019-02-11T00:00:46.020Z,6.32
2019-02-11T00:03:14.212Z,6.32
2019-02-11T00:05:42.432Z,6.32
2019-02-11T00:08:10.615Z,6.32
2019-02-11T00:10:38.838Z,6.30
2019-02-11T00:13:10.679Z,6.32
2019-02-11T00:15:36.932Z,6.33
2019-02-11T00:18:05.109Z,6.32
2019-02-11T00:20:33.307Z,6.28
2019-02-11T00:23:01.480Z,6.25
2019-02-11T00:25:29.666Z,6.25
2019-02-11T00:27:57.864Z,6.26
2019-02-11T00:30:26.051Z,6.28
2019-02-11T00:32:54.334Z,6.30
2019-02-11T00:35:22.594Z,6.32
2019-02-11T00:37:50.794Z,6.36
2019-02-11T00:40:18.979Z,6.35
2019-02-11T00:42:47.223Z,6.37
2019-02-11T00:45:15.407Z,6.40
2019-02-11T00:47:43.581Z,6.43
2019-02-11T00:50:11.858Z,6.47
2019-02-11T00:52:40.036Z,6.48
2019-02-11T00:55:08.226Z,6.51
2019-02-11T00:57:36.407Z,6.54
2019-02-11T01:00:07.632Z,6.55
2019-02-11T01:02:35.829Z,6.56
2019-02-11T01:05:05.462Z,6.62
2019-02-11T01:07:33.637Z,6.62
2019-02-11T01:10:01.879Z,6.64
2019-02-11T01:12:30.048Z,6.70
2019-02-11T01:14:58.202Z,6.71
2019-02-11T01:17:26.392Z,6.69
2019-02-11T01:19:54.569Z,6.69
2019-02-11T01:22:22.759Z,6.70
2019-02-11T01:24:51.019Z,6.72
2019-02-11T01:27:19.209Z,6.75
2019-02-11T01:29:47.619Z,6.75
2019-02-11T01:32:15.762Z,6.73
2019-02-11T01:34:43.948Z,6.71
2019-02-11T01:37:12.160Z,6.72
2019-02-11T01:39:40.360Z,6.74
2019-02-11T01:42:08.572Z,6.77
2019-02-11T01:44:36.776Z,6.77
2019-02-11T01:47:04.996Z,6.79
2019-02-11T01:49:33.212Z,6.81
2019-02-11T01:52:01.432Z,6.85
2019-02-11T01:54:29.606Z,6.88
2019-02-11T01:56:57.865Z,6.88
2019-02-11T02:01:53.278Z,6.86
2019-02-11T02:04:21.478Z,6.85
2019-02-11T02:06:49.710Z,6.84
2019-02-11T02:09:17.892Z,6.84
2019-02-11T02:11:46.097Z,6.85
2019-02-11T02:14:14.296Z,6.87
2019-02-11T02:16:42.479Z,6.87
2019-02-11T02:19:10.655Z,6.89
2019-02-11T02:21:38.851Z,6.88
2019-02-11T02:24:07.051Z,6.89
2019-02-11T02:26:35.231Z,6.88
2019-02-11T02:29:03.419Z,6.88
2019-02-11T02:31:31.599Z,6.88
2019-02-11T02:33:59.815Z,6.86
2019-02-11T02:36:27.990Z,6.84
2019-02-11T02:38:56.203Z,6.83
2019-02-11T02:41:24.386Z,6.81
2019-02-11T02:43:55.495Z,6.82
2019-02-11T02:46:22.503Z,6.84
2019-02-11T02:48:50.710Z,6.87
2019-02-11T02:51:18.879Z,6.86
2019-02-11T02:53:47.066Z,6.87
2019-02-11T02:56:15.247Z,6.86
2019-02-11T02:58:43.453Z,6.84
2019-02-11T03:01:11.652Z,6.82
2019-02-11T03:03:39.848Z,6.85
2019-02-11T03:06:08.055Z,6.86
2019-02-11T03:08:36.249Z,6.87
2019-02-11T03:11:04.432Z,6.87
2019-02-11T03:13:32.653Z,6.90
2019-02-11T03:16:00.811Z,6.88
2019-02-11T03:18:29.053Z,6.89
2019-02-11T03:20:57.229Z,6.91
2019-02-11T03:23:25.461Z,6.89
2019-02-11T03:25:53.637Z,6.90
2019-02-11T03:28:21.840Z,6.89
2019-02-11T03:30:50.057Z,6.90
2019-02-11T03:33:18.214Z,6.93
2019-02-11T03:35:46.428Z,6.94
2019-02-11T03:38:14.664Z,6.94
2019-02-11T03:40:42.845Z,6.97
2019-02-11T03:43:11.022Z,6.98
2019-02-11T03:45:39.226Z,7.00
2019-02-11T03:48:07.397Z,7.00
2019-02-11T03:50:35.580Z,7.01
2019-02-11T03:53:03.756Z,7.02
2019-02-11T03:55:31.949Z,7.05
2019-02-11T03:58:00.167Z,7.08
2019-02-11T04:00:28.359Z,7.09
2019-02-11T04:02:56.540Z,7.10
2019-02-11T04:05:24.755Z,7.11
2019-02-11T04:07:52.943Z,7.10
2019-02-11T04:10:21.124Z,7.10
2019-02-11T04:12:49.300Z,7.09
2019-02-11T04:15:17.491Z,7.10
2019-02-11T04:17:45.669Z,7.09
2019-02-11T04:20:13.889Z,7.07
2019-02-11T04:22:42.069Z,7.06
2019-02-11T04:25:10.283Z,7.08
2019-02-11T04:27:38.462Z,7.05
2019-02-11T04:30:09.191Z,7.03
2019-02-11T04:32:37.364Z,7.02
2019-02-11T04:35:06.225Z,7.04
2019-02-11T04:37:34.440Z,7.02
2019-02-11T04:40:02.655Z,7.01
2019-02-11T04:42:30.833Z,7.03
2019-02-11T04:44:59.010Z,7.05
2019-02-11T04:47:27.203Z,7.04
2019-02-11T04:49:55.396Z,7.02
2019-02-11T04:52:23.628Z,6.98
2019-02-11T04:54:51.813Z,6.96
2019-02-11T04:57:20.032Z,6.98
2019-02-11T04:59:48.233Z,7.02
2019-02-11T05:02:16.454Z,7.01
2019-02-11T05:04:44.644Z,7.02
2019-02-11T05:07:12.841Z,7.02
2019-02-11T05:09:41.021Z,6.99
2019-02-11T05:12:09.221Z,6.97
2019-02-11T05:14:43.464Z,6.95
2019-02-11T05:17:07.315Z,6.96
2019-02-11T05:19:35.504Z,6.99
2019-02-11T05:22:03.718Z,6.99
2019-02-11T05:24:31.901Z,7.00
2019-02-11T05:27:00.099Z,7.01
2019-02-11T05:29:28.304Z,7.00
2019-02-11T05:31:56.513Z,7.02
2019-02-11T05:34:24.703Z,7.05
2019-02-11T05:36:52.897Z,7.05
2019-02-11T05:39:21.085Z,7.07
2019-02-11T05:41:49.280Z,7.06
2019-02-11T05:44:17.456Z,7.07
2019-02-11T05:46:45.672Z,7.08
2019-02-11T05:49:13.937Z,7.08
2019-02-11T05:51:42.122Z,7.08
2019-02-11T05:54:10.327Z,7.10
2019-02-11T05:56:38.512Z,7.11
2019-02-11T05:59:06.708Z,7.11
2019-02-11T06:01:34.894Z,7.13
2019-02-11T06:04:03.083Z,7.14
2019-02-11T06:06:31.294Z,7.12
2019-02-11T06:08:59.489Z,7.15
2019-02-11T06:11:27.677Z,7.15
2019-02-11T06:13:55.904Z,7.14
2019-02-11T06:16:24.076Z,7.13
2019-02-11T06:18:52.294Z,7.11
2019-02-11T06:21:20.488Z,7.09
2019-02-11T06:23:48.671Z,7.08
2019-02-11T06:26:16.857Z,7.09
2019-02-11T06:28:45.073Z,7.11
2019-02-11T06:31:13.282Z,7.15
2019-02-11T06:33:41.498Z,7.16
2019-02-11T06:36:12.360Z,7.17
2019-02-11T06:38:39.612Z,7.14
2019-02-11T06:41:07.801Z,7.14
2019-02-11T06:43:36.000Z,7.14
2019-02-11T06:46:04.206Z,7.12
2019-02-11T06:48:32.413Z,7.15
2019-02-11T06:51:00.596Z,7.30
2019-02-11T06:53:28.817Z,7.45
2019-02-11T06:55:56.994Z,7.54
2019-02-11T06:58:25.189Z,7.49
2019-02-11T07:00:53.368Z,7.47
2019-02-11T07:03:21.582Z,7.51
2019-02-11T07:05:49.795Z,7.57
2019-02-11T07:08:17.983Z,7.49
2019-02-11T07:10:46.182Z,7.44
2019-02-11T07:13:14.381Z,7.40
2019-02-11T07:15:42.580Z,7.34
2019-02-11T07:18:10.763Z,7.25
2019-02-11T07:20:38.952Z,7.22
2019-02-11T07:23:07.137Z,7.22
2019-02-11T07:25:35.370Z,7.17
2019-02-11T07:28:03.576Z,7.16
2019-02-11T07:30:31.784Z,7.14
2019-02-11T07:32:59.988Z,7.12
2019-02-11T07:35:28.182Z,7.12
2019-02-11T07:37:56.376Z,7.12
2019-02-11T07:40:26.701Z,7.12
2019-02-11T07:42:56.521Z,7.14
2019-02-11T07:45:30.058Z,7.13
2019-02-11T07:47:56.262Z,7.12
2019-02-11T07:50:24.466Z,7.12
2019-02-11T07:52:52.653Z,7.14
2019-02-11T07:55:20.853Z,7.17
2019-02-11T07:57:49.061Z,7.17
2019-02-11T08:00:17.281Z,7.17
2019-02-11T08:02:45.464Z,7.20
2019-02-11T08:05:13.682Z,7.20
2019-02-11T08:07:41.880Z,7.23
2019-02-11T08:10:10.078Z,7.25
2019-02-11T08:12:38.278Z,7.21
2019-02-11T08:15:08.756Z,7.21
2019-02-11T08:17:36.954Z,7.25
2019-02-11T08:20:08.033Z,7.31
2019-02-11T08:22:36.245Z,7.33
2019-02-11T08:25:05.057Z,7.36
2019-02-11T08:27:33.275Z,7.55
2019-02-11T08:30:01.488Z,8.11
2019-02-11T08:32:29.701Z,8.64
2019-02-11T08:34:57.881Z,8.94
2019-02-11T08:37:26.072Z,9.18
2019-02-11T08:39:54.262Z,9.33
2019-02-11T08:42:22.452Z,9.40
2019-02-11T08:44:50.663Z,9.49
2019-02-11T08:47:19.466Z,9.62
2019-02-11T08:49:47.860Z,9.74
2019-02-11T08:52:16.074Z,9.84
2019-02-11T08:54:44.287Z,9.93
2019-02-11T08:57:12.505Z,9.97
2019-02-11T08:59:40.680Z,9.94
2019-02-11T09:02:08.883Z,9.97
2019-02-11T09:04:37.071Z,10.03
2019-02-11T09:07:05.307Z,10.22
2019-02-11T09:09:33.489Z,10.38
2019-02-11T09:12:01.687Z,10.46
2019-02-11T09:14:30.969Z,10.53
2019-02-11T09:16:59.383Z,10.66
2019-02-11T09:19:27.572Z,10.77
2019-02-11T09:21:55.780Z,10.69
2019-02-11T09:24:23.976Z,10.62
2019-02-11T09:26:52.166Z,10.60
2019-02-11T09:29:20.369Z,10.47
2019-02-11T09:31:48.578Z,10.48
2019-02-11T09:34:16.871Z,10.52
2019-02-11T09:36:45.052Z,10.57
2019-02-11T09:39:13.269Z,10.47
2019-02-11T09:41:41.486Z,10.07
2019-02-11T09:44:09.674Z,9.78
2019-02-11T09:46:37.881Z,9.66
2019-02-11T09:49:06.099Z,9.53
2019-02-11T09:51:36.929Z,9.33
2019-02-11T09:54:05.135Z,9.13
2019-02-11T09:56:33.327Z,8.96
2019-02-11T09:59:01.518Z,8.90
2019-02-11T10:01:29.702Z,8.82
2019-02-11T10:03:57.924Z,8.80
2019-02-11T10:06:26.121Z,8.70
2019-02-11T10:08:54.345Z,8.64
2019-02-11T10:11:22.527Z,8.56
2019-02-11T10:13:50.730Z,8.50
2019-02-11T10:16:18.910Z,8.54
2019-02-11T10:18:47.104Z,8.50
2019-02-11T10:21:15.284Z,8.50
2019-02-11T10:23:43.495Z,8.44
2019-02-11T10:26:11.674Z,8.50
2019-02-11T10:28:39.897Z,8.67
2019-02-11T10:31:08.078Z,8.79
2019-02-11T10:33:36.313Z,8.91
2019-02-11T10:36:04.504Z,9.04
2019-02-11T10:38:36.500Z,9.10
2019-02-11T10:41:02.631Z,9.02
2019-02-11T10:43:30.846Z,8.92
2019-02-11T10:45:59.052Z,8.93
2019-02-11T10:48:27.246Z,8.88
2019-02-11T10:50:55.450Z,8.92
2019-02-11T10:53:23.648Z,8.99
2019-02-11T10:55:51.841Z,9.18
2019-02-11T10:58:20.025Z,9.33
2019-02-11T11:00:48.246Z,9.31
2019-02-11T11:03:16.431Z,9.25
2019-02-11T11:05:44.625Z,9.24
2019-02-11T11:08:12.816Z,9.30
2019-02-11T11:10:41.011Z,9.33
2019-02-11T11:13:09.221Z,9.31
2019-02-11T11:15:37.423Z,9.34
2019-02-11T11:18:06.112Z,9.40
2019-02-11T11:20:34.293Z,9.59
2019-02-11T11:23:02.475Z,9.87
2019-02-11T11:25:30.702Z,10.08
2019-02-11T11:27:58.909Z,10.25
2019-02-11T11:30:27.106Z,10.37
2019-02-11T11:32:55.327Z,10.34
2019-02-11T11:35:23.504Z,10.24
2019-02-11T11:37:51.712Z,10.26
2019-02-11T11:40:21.363Z,10.28
2019-02-11T11:42:49.560Z,10.20
2019-02-11T11:45:19.006Z,10.12
2019-02-11T11:47:47.246Z,10.03
2019-02-11T11:50:16.277Z,10.04
2019-02-11T11:52:44.471Z,10.05
2019-02-11T11:55:14.733Z,10.08
2019-02-11T11:57:42.957Z,10.12
2019-02-11T12:00:17.281Z,10.19
2019-02-11T12:03:00.318Z,10.27
2019-02-11T12:05:15.958Z,10.25
2019-02-11T12:07:45.138Z,10.15
2019-02-11T12:10:13.369Z,10.06
2019-02-11T12:12:41.573Z,9.97
2019-02-11T12:15:11.995Z,9.77
2019-02-11T12:17:40.567Z,9.87
2019-02-11T12:20:11.277Z,9.97
2019-02-11T12:22:39.503Z,10.09
2019-02-11T12:25:10.799Z,10.28
2019-02-11T12:27:39.014Z,10.36
2019-02-11T12:30:15.612Z,10.30
2019-02-11T12:32:43.782Z,10.34
2019-02-11T12:35:13.439Z,10.27
2019-02-11T12:37:41.628Z,10.04
2019-02-11T12:40:11.260Z,9.90
2019-02-11T12:42:39.453Z,9.78
2019-02-11T12:45:19.816Z,9.74
2019-02-11T12:47:48.033Z,9.70
2019-02-11T12:50:17.563Z,9.75
2019-02-11T12:52:45.796Z,9.98
2019-02-11T12:55:15.424Z,10.20
2019-02-11T12:57:43.631Z,10.47
2019-02-11T13:00:24.283Z,10.70
2019-02-11T13:02:52.588Z,10.78
2019-02-11T13:05:23.651Z,10.93
2019-02-11T13:07:50.696Z,11.19
2019-02-11T13:10:22.110Z,11.41
2019-02-11T13:12:50.385Z,11.50
2019-02-11T13:15:52.840Z,11.29
2019-02-11T13:17:49.320Z,11.20
2019-02-11T13:20:18.272Z,11.08
2019-02-11T13:22:46.574Z,10.89
2019-02-11T13:25:15.890Z,10.71
2019-02-11T13:27:44.096Z,10.64
2019-02-11T13:30:17.873Z,10.50
2019-02-11T13:32:46.106Z,10.41
2019-02-11T13:35:14.305Z,10.49
2019-02-11T13:37:42.525Z,10.52
2019-02-11T13:40:11.069Z,10.34
2019-02-11T13:42:39.290Z,10.16
2019-02-11T13:45:16.212Z,10.05
2019-02-11T13:47:53.907Z,10.05
2019-02-11T13:50:17.178Z,10.24
2019-02-11T13:52:45.423Z,10.38
2019-02-11T13:55:13.630Z,10.52
2019-02-11T13:57:41.813Z,10.53
2019-02-11T14:00:17.565Z,10.46
2019-02-11T14:02:51.144Z,10.45
2019-02-11T14:05:19.351Z,10.43
2019-02-11T14:07:47.533Z,10.48
2019-02-11T14:10:15.738Z,10.52
2019-02-11T14:12:43.946Z,10.56
2019-02-11T14:15:12.177Z,10.54
2019-02-11T14:17:40.427Z,10.40
2019-02-11T14:20:26.181Z,10.34
2019-02-11T14:22:54.378Z,10.26
2019-02-11T14:25:40.910Z,10.33
2019-02-11T14:27:52.505Z,10.31
2019-02-11T14:30:23.389Z,10.36
2019-02-11T14:32:51.640Z,10.38
2019-02-11T14:35:20.739Z,10.37
2019-02-11T14:37:49.033Z,10.43
2019-02-11T14:40:17.215Z,10.47
2019-02-11T14:42:45.381Z,10.53
2019-02-11T14:45:21.084Z,10.52
2019-02-11T14:47:49.330Z,10.59
2019-02-11T14:50:17.572Z,10.59
2019-02-11T14:52:45.724Z,10.60
2019-02-11T14:55:13.906Z,10.63
2019-02-11T14:57:42.108Z,10.66
2019-02-11T15:00:19.632Z,10.67
2019-02-11T15:02:47.834Z,10.67
2019-02-11T15:05:16.265Z,10.67
2019-02-11T15:07:44.461Z,10.61
2019-02-11T15:10:13.113Z,10.64
2019-02-11T15:12:41.318Z,10.58
2019-02-11T15:15:10.847Z,10.49
2019-02-11T15:17:40.485Z,10.49
2019-02-11T15:20:14.271Z,10.50
2019-02-11T15:22:42.470Z,10.51
2019-02-11T15:25:12.597Z,10.41
2019-02-11T15:27:40.802Z,10.17
2019-02-11T15:30:11.989Z,9.90
2019-02-11T15:32:40.235Z,9.78
2019-02-11T15:35:09.104Z,9.63
2019-02-11T15:37:37.322Z,9.52
2019-02-11T15:40:08.775Z,9.45
2019-02-11T15:42:36.982Z,9.40
2019-02-11T15:45:08.602Z,9.37
2019-02-11T15:47:36.798Z,9.24
2019-02-11T15:50:08.220Z,9.15
2019-02-11T15:52:36.419Z,9.03
2019-02-11T15:55:07.436Z,8.95
2019-02-11T15:57:35.652Z,8.80
2019-02-11T16:00:06.401Z,8.81
2019-02-11T16:02:34.598Z,8.79
2019-02-11T16:05:02.943Z,8.69
2019-02-11T16:07:31.098Z,8.60
2019-02-11T16:09:59.281Z,8.53
2019-02-11T16:12:27.456Z,8.42
2019-02-11T16:14:55.648Z,8.31
2019-02-11T16:17:23.899Z,8.24
2019-02-11T16:19:52.130Z,8.16
2019-02-11T16:22:20.346Z,8.10
2019-02-11T16:24:48.538Z,7.95
2019-02-11T16:27:16.720Z,7.82
2019-02-11T16:29:44.920Z,7.77
2019-02-11T16:32:13.115Z,7.78
2019-02-11T16:34:42.774Z,7.68
2019-02-11T16:37:10.982Z,7.54
2019-02-11T16:39:39.175Z,7.43
2019-02-11T16:42:07.383Z,7.24
2019-02-11T16:44:35.621Z,7.12
2019-02-11T16:47:04.295Z,7.00
2019-02-11T16:49:32.495Z,6.93
2019-02-11T16:52:00.690Z,6.87
2019-02-11T16:54:28.908Z,6.81
2019-02-11T16:56:57.082Z,6.77
2019-02-11T16:59:25.285Z,6.71
2019-02-11T17:01:53.459Z,6.62
2019-02-11T17:04:21.658Z,6.53
2019-02-11T17:06:49.880Z,6.48
2019-02-11T17:09:18.115Z,6.46
2019-02-11T17:11:46.307Z,6.46
2019-02-11T17:14:14.561Z,6.46
2019-02-11T17:16:42.753Z,6.45
2019-02-11T17:19:10.947Z,6.47
2019-02-11T17:21:39.132Z,6.49
2019-02-11T17:24:07.328Z,6.50
2019-02-11T17:26:35.518Z,6.56
2019-02-11T17:29:03.710Z,6.59
2019-02-11T17:31:31.898Z,6.57
2019-02-11T17:34:00.094Z,6.58
2019-02-11T17:36:28.290Z,6.53
2019-02-11T17:38:56.477Z,6.50
2019-02-11T17:41:24.683Z,6.52
2019-02-11T17:43:52.862Z,6.50
2019-02-11T17:46:21.058Z,6.52
2019-02-11T17:48:49.239Z,6.52
2019-02-11T17:51:17.482Z,6.54
2019-02-11T17:53:45.673Z,6.58
2019-02-11T17:56:13.868Z,6.56
2019-02-11T17:58:42.052Z,6.59
2019-02-11T18:01:10.256Z,6.60
2019-02-11T18:03:39.725Z,6.63
2019-02-11T18:06:07.834Z,6.66
2019-02-11T18:08:36.045Z,6.66
2019-02-11T18:11:04.265Z,6.63
2019-02-11T18:13:36.087Z,6.60
2019-02-11T18:16:04.029Z,6.59
2019-02-11T18:18:32.212Z,6.56
2019-02-11T18:21:00.424Z,6.52
2019-02-11T18:23:28.609Z,6.51
2019-02-11T18:25:56.827Z,6.48
2019-02-11T18:28:25.014Z,6.43
2019-02-11T18:30:53.216Z,6.37
2019-02-11T18:33:21.396Z,6.28
2019-02-11T18:35:49.587Z,6.22
2019-02-11T18:38:17.769Z,6.17
2019-02-11T18:40:45.992Z,6.20
2019-02-11T18:43:14.206Z,6.18
2019-02-11T18:45:42.394Z,6.14
2019-02-11T18:48:10.587Z,6.14
2019-02-11T18:50:38.775Z,6.16
2019-02-11T18:53:06.963Z,6.14
2019-02-11T18:55:35.165Z,6.13
2019-02-11T18:58:03.373Z,6.11
2019-02-11T19:00:31.536Z,6.10
2019-02-11T19:02:59.774Z,6.13
2019-02-11T19:05:27.963Z,6.15
2019-02-11T19:07:56.158Z,6.18
2019-02-11T19:10:24.345Z,6.21
2019-02-11T19:12:52.562Z,6.26
2019-02-11T19:15:20.751Z,6.27
2019-02-11T19:17:48.942Z,6.31
2019-02-11T19:20:17.662Z,6.32
2019-02-11T19:22:45.863Z,6.32
2019-02-11T19:25:14.044Z,6.26
2019-02-11T19:27:42.262Z,6.24
2019-02-11T19:30:13.552Z,6.26
2019-02-11T19:32:41.750Z,6.26
2019-02-11T19:35:09.935Z,6.23
2019-02-11T19:37:38.141Z,6.17
2019-02-11T19:40:09.724Z,6.10
2019-02-11T19:42:37.988Z,6.04
2019-02-11T19:45:09.575Z,5.99
2019-02-11T19:47:37.784Z,5.98
2019-02-11T19:50:09.186Z,5.96
2019-02-11T19:52:37.381Z,5.96
2019-02-11T19:55:08.113Z,5.94
2019-02-11T19:57:36.347Z,5.89
2019-02-11T20:00:07.202Z,5.90
2019-02-11T20:02:35.398Z,5.85
2019-02-11T20:05:03.852Z,5.79
2019-02-11T20:07:32.080Z,5.73
2019-02-11T20:10:00.327Z,5.72
2019-02-11T20:12:28.471Z,5.71
2019-02-11T20:14:56.650Z,5.74
2019-02-11T20:17:24.843Z,5.70
2019-02-11T20:20:00.209Z,5.63
2019-02-11T20:22:22.940Z,5.62
2019-02-11T20:24:51.177Z,5.61
2019-02-11T20:27:19.362Z,5.62
2019-02-11T20:29:47.547Z,5.62
2019-02-11T20:32:15.742Z,5.63
2019-02-11T20:34:43.933Z,5.62
2019-02-11T20:37:12.146Z,5.58
2019-02-11T20:39:42.052Z,5.56
2019-02-11T20:42:10.354Z,5.53
2019-02-11T20:44:38.610Z,5.55
2019-02-11T20:47:06.797Z,5.62
2019-02-11T20:49:34.992Z,5.66
2019-02-11T20:52:03.173Z,5.65
2019-02-11T20:54:31.378Z,5.67
2019-02-11T20:56:59.584Z,5.66
2019-02-11T20:59:27.808Z,5.63
2019-02-11T21:01:55.967Z,5.62
2019-02-11T21:04:24.164Z,5.62
2019-02-11T21:06:52.414Z,5.60
2019-02-11T21:09:20.610Z,5.61
2019-02-11T21:11:48.795Z,5.57
2019-02-11T21:14:16.992Z,5.57
2019-02-11T21:16:45.175Z,5.56
2019-02-11T21:19:13.371Z,5.54
2019-02-11T21:21:41.583Z,5.52
2019-02-11T21:24:09.783Z,5.52
2019-02-11T21:26:37.966Z,5.53
2019-02-11T21:29:06.157Z,5.54
2019-02-11T21:31:34.360Z,5.52
2019-02-11T21:34:02.533Z,5.52
2019-02-11T21:36:30.987Z,5.49
2019-02-11T21:38:59.253Z,5.44
2019-02-11T21:41:27.458Z,5.45
2019-02-11T21:43:55.679Z,5.48
2019-02-11T21:46:23.861Z,5.45
2019-02-11T21:48:52.092Z,5.43
2019-02-11T21:51:20.238Z,5.42
2019-02-11T21:53:48.439Z,5.37
2019-02-11T21:56:17.691Z,5.38
2019-02-11T21:58:45.920Z,5.39
2019-02-11T22:01:14.295Z,5.44
2019-02-11T22:03:42.486Z,5.46
2019-02-11T22:06:10.668Z,5.49
2019-02-11T22:08:38.890Z,5.52
2019-02-11T22:11:07.070Z,5.57
2019-02-11T22:13:35.274Z,5.61
2019-02-11T22:16:03.463Z,5.59
2019-02-11T22:18:31.675Z,5.57
2019-02-11T22:20:59.883Z,5.56
2019-02-11T22:23:28.083Z,5.53
2019-02-11T22:25:56.265Z,5.53
2019-02-11T22:28:24.465Z,5.55
2019-02-11T22:30:52.645Z,5.55
2019-02-11T22:33:20.834Z,5.54
2019-02-11T22:35:49.043Z,5.51
2019-02-11T22:38:17.226Z,5.51
2019-02-11T22:40:45.423Z,5.50
2019-02-11T22:43:13.601Z,5.50
2019-02-11T22:45:41.793Z,5.54
2019-02-11T22:48:09.980Z,5.54
2019-02-11T22:50:43.228Z,5.56
2019-02-11T22:53:08.107Z,5.56
2019-02-11T22:55:36.337Z,5.57
2019-02-11T22:58:04.483Z,5.60
2019-02-11T23:00:45.624Z,5.62
2019-02-11T23:03:13.898Z,5.62
2019-02-11T23:05:42.088Z,5.64
2019-02-11T23:08:10.274Z,5.65
2019-02-11T23:10:38.487Z,5.67
2019-02-11T23:13:06.670Z,5.74
2019-02-11T23:15:34.860Z,5.75
2019-02-11T23:18:03.226Z,5.75
2019-02-11T23:20:31.424Z,5.70
2019-02-11T23:22:59.631Z,5.65
2019-02-11T23:25:27.831Z,5.63
2019-02-11T23:27:56.038Z,5.64
2019-02-11T23:30:24.227Z,5.62
2019-02-11T23:32:52.412Z,5.58
2019-02-11T23:35:20.657Z,5.55
2019-02-11T23:37:48.866Z,5.54
2019-02-11T23:40:17.064Z,5.53
2019-02-11T23:42:45.244Z,5.51
2019-02-11T23:45:13.440Z,5.46
2019-02-11T23:47:41.630Z,5.42
2019-02-11T23:50:11.092Z,5.39
2019-02-11T23:52:39.322Z,5.37
2019-02-11T23:55:10.652Z,5.40
2019-02-11T23:57:38.827Z,5.43
